sensor_id;sensor_type;location;lat;lon;timestamp;pressure;altitude;pressure_sealevel;temperature;humidity
69200;BME280;56313;49.804;9.952;2022-09-03T00:00:59;99055.13;;;15.49;50.60
69200;BME280;56313;49.804;9.952;2022-09-03T00:03:33;99041.66;;;15.43;50.86
69200;BME280;56313;49.804;9.952;2022-09-03T00:08:47;99049.75;;;15.42;51.06
69200;BME280;56313;49.804;9.952;2022-09-03T00:13:50;99039.50;;;15.32;51.33
69200;BME280;56313;49.804;9.952;2022-09-03T00:16:17;99046.38;;;15.48;51.06
69200;BME280;56313;49.804;9.952;2022-09-03T00:18:50;99045.47;;;15.56;50.78
69200;BME280;56313;49.804;9.952;2022-09-03T00:21:19;99039.53;;;15.54;50.83
69200;BME280;56313;49.804;9.952;2022-09-03T00:23:47;99040.97;;;15.56;50.82
69200;BME280;56313;49.804;9.952;2022-09-03T00:26:19;99042.06;;;15.62;50.55
69200;BME280;56313;49.804;9.952;2022-09-03T00:28:49;99042.72;;;15.49;51.03
69200;BME280;56313;49.804;9.952;2022-09-03T00:31:23;99031.91;;;15.44;51.06
69200;BME280;56313;49.804;9.952;2022-09-03T00:33:50;99038.84;;;15.30;51.48
69200;BME280;56313;49.804;9.952;2022-09-03T00:36:22;99045.03;;;15.37;51.64
69200;BME280;56313;49.804;9.952;2022-09-03T00:38:50;99040.09;;;15.34;51.93
69200;BME280;56313;49.804;9.952;2022-09-03T00:41:39;99047.59;;;15.15;52.36
69200;BME280;56313;49.804;9.952;2022-09-03T00:44:14;99044.47;;;15.12;52.61
69200;BME280;56313;49.804;9.952;2022-09-03T00:51:49;99050.44;;;14.75;53.62
69200;BME280;56313;49.804;9.952;2022-09-03T00:54:20;99058.81;;;14.64;53.86
69200;BME280;56313;49.804;9.952;2022-09-03T01:02:14;99045.13;;;14.84;53.45
69200;BME280;56313;49.804;9.952;2022-09-03T01:04:47;99046.50;;;14.94;53.33
69200;BME280;56313;49.804;9.952;2022-09-03T01:07:22;99042.22;;;14.93;53.21
69200;BME280;56313;49.804;9.952;2022-09-03T01:14:59;99043.78;;;14.88;53.44
69200;BME280;56313;49.804;9.952;2022-09-03T01:18:10;99045.66;;;14.79;53.72
69200;BME280;56313;49.804;9.952;2022-09-03T01:27:44;99043.19;;;14.77;53.86
69200;BME280;56313;49.804;9.952;2022-09-03T01:30:16;99041.09;;;14.73;54.21
69200;BME280;56313;49.804;9.952;2022-09-03T01:37:46;99045.81;;;14.39;54.89
69200;BME280;56313;49.804;9.952;2022-09-03T01:42:55;99051.09;;;14.39;55.03
69200;BME280;56313;49.804;9.952;2022-09-03T01:55:29;99045.53;;;14.34;55.21
69200;BME280;56313;49.804;9.952;2022-09-03T01:58:12;99043.16;;;14.24;55.56
69200;BME280;56313;49.804;9.952;2022-09-03T02:00:39;99035.88;;;14.26;55.31
69200;BME280;56313;49.804;9.952;2022-09-03T02:03:06;99034.16;;;14.33;55.43
69200;BME280;56313;49.804;9.952;2022-09-03T02:05:33;99029.97;;;14.24;55.38
69200;BME280;56313;49.804;9.952;2022-09-03T02:08:03;99027.16;;;14.02;56.19
69200;BME280;56313;49.804;9.952;2022-09-03T02:13:03;99042.44;;;14.06;56.09
69200;BME280;56313;49.804;9.952;2022-09-03T02:15:29;99041.16;;;14.02;56.25
69200;BME280;56313;49.804;9.952;2022-09-03T02:17:56;99041.06;;;13.96;56.49
69200;BME280;56313;49.804;9.952;2022-09-03T02:20:24;99047.44;;;14.01;56.06
69200;BME280;56313;49.804;9.952;2022-09-03T02:22:51;99036.19;;;14.08;56.24
69200;BME280;56313;49.804;9.952;2022-09-03T02:25:17;99045.91;;;14.07;56.10
69200;BME280;56313;49.804;9.952;2022-09-03T02:27:42;99042.84;;;13.95;56.57
69200;BME280;56313;49.804;9.952;2022-09-03T02:30:08;99048.94;;;13.96;56.35
69200;BME280;56313;49.804;9.952;2022-09-03T02:32:34;99048.41;;;14.00;56.46
69200;BME280;56313;49.804;9.952;2022-09-03T02:34:59;99048.56;;;13.99;56.45
69200;BME280;56313;49.804;9.952;2022-09-03T02:37:24;99045.00;;;13.91;56.55
69200;BME280;56313;49.804;9.952;2022-09-03T02:39:50;99038.09;;;13.90;56.54
69200;BME280;56313;49.804;9.952;2022-09-03T02:42:16;99045.47;;;13.95;56.48
69200;BME280;56313;49.804;9.952;2022-09-03T02:44:52;99041.22;;;13.94;56.49
69200;BME280;56313;49.804;9.952;2022-09-03T02:47:19;99040.69;;;13.99;56.57
69200;BME280;56313;49.804;9.952;2022-09-03T02:49:46;99046.31;;;13.96;56.66
69200;BME280;56313;49.804;9.952;2022-09-03T02:52:12;99041.16;;;14.02;56.46
69200;BME280;56313;49.804;9.952;2022-09-03T02:54:38;99034.22;;;13.78;56.98
69200;BME280;56313;49.804;9.952;2022-09-03T02:57:04;99038.34;;;13.80;57.27
69200;BME280;56313;49.804;9.952;2022-09-03T02:59:30;99034.72;;;13.81;57.02
69200;BME280;56313;49.804;9.952;2022-09-03T03:01:58;99031.56;;;13.86;56.96
69200;BME280;56313;49.804;9.952;2022-09-03T03:04:23;99036.81;;;13.86;56.84
69200;BME280;56313;49.804;9.952;2022-09-03T03:06:48;99029.16;;;13.76;57.05
69200;BME280;56313;49.804;9.952;2022-09-03T03:09:17;99029.78;;;13.78;57.34
69200;BME280;56313;49.804;9.952;2022-09-03T03:11:42;99036.00;;;13.86;57.23
69200;BME280;56313;49.804;9.952;2022-09-03T03:14:08;99030.97;;;13.76;57.29
69200;BME280;56313;49.804;9.952;2022-09-03T03:16:33;99040.31;;;13.78;57.29
69200;BME280;56313;49.804;9.952;2022-09-03T03:19:01;99037.16;;;13.83;57.05
69200;BME280;56313;49.804;9.952;2022-09-03T03:21:30;99034.41;;;13.76;57.34
69200;BME280;56313;49.804;9.952;2022-09-03T03:23:55;99026.88;;;13.73;57.57
69200;BME280;56313;49.804;9.952;2022-09-03T03:26:20;99023.59;;;13.71;57.60
69200;BME280;56313;49.804;9.952;2022-09-03T03:28:47;99029.59;;;13.57;58.03
69200;BME280;56313;49.804;9.952;2022-09-03T03:31:19;99037.59;;;13.63;57.75
69200;BME280;56313;49.804;9.952;2022-09-03T03:33:54;99037.09;;;13.68;57.78
69200;BME280;56313;49.804;9.952;2022-09-03T03:36:20;99034.41;;;13.76;57.62
69200;BME280;56313;49.804;9.952;2022-09-03T03:38:45;99039.53;;;13.70;57.51
69200;BME280;56313;49.804;9.952;2022-09-03T03:41:18;99034.09;;;13.71;57.73
69200;BME280;56313;49.804;9.952;2022-09-03T03:43:43;99036.28;;;13.67;57.85
69200;BME280;56313;49.804;9.952;2022-09-03T03:46:09;99032.38;;;13.55;58.11
69200;BME280;56313;49.804;9.952;2022-09-03T03:48:40;99035.84;;;13.55;58.26
69200;BME280;56313;49.804;9.952;2022-09-03T03:51:08;99041.94;;;13.48;58.45
69200;BME280;56313;49.804;9.952;2022-09-03T03:53:52;99042.94;;;13.38;58.66
69200;BME280;56313;49.804;9.952;2022-09-03T03:56:29;99044.59;;;13.39;58.87
69200;BME280;56313;49.804;9.952;2022-09-03T03:58:57;99047.91;;;13.33;58.85
69200;BME280;56313;49.804;9.952;2022-09-03T04:01:30;99042.81;;;13.32;59.05
69200;BME280;56313;49.804;9.952;2022-09-03T04:04:03;99044.59;;;13.39;58.73
69200;BME280;56313;49.804;9.952;2022-09-03T04:06:29;99042.75;;;13.57;58.37
69200;BME280;56313;49.804;9.952;2022-09-03T04:08:58;99046.53;;;13.54;58.32
69200;BME280;56313;49.804;9.952;2022-09-03T04:11:23;99047.88;;;13.41;58.81
69200;BME280;56313;49.804;9.952;2022-09-03T04:13:49;99046.75;;;13.36;58.98
69200;BME280;56313;49.804;9.952;2022-09-03T04:16:21;99040.03;;;13.25;59.44
69200;BME280;56313;49.804;9.952;2022-09-03T04:18:53;99044.47;;;13.33;59.22
69200;BME280;56313;49.804;9.952;2022-09-03T04:21:20;99040.28;;;13.55;58.89
69200;BME280;56313;49.804;9.952;2022-09-03T04:23:49;99041.06;;;13.64;58.45
69200;BME280;56313;49.804;9.952;2022-09-03T04:26:29;99037.81;;;13.53;58.83
69200;BME280;56313;49.804;9.952;2022-09-03T04:29:04;99036.44;;;13.66;58.15
69200;BME280;56313;49.804;9.952;2022-09-03T04:31:30;99041.91;;;13.56;58.54
69200;BME280;56313;49.804;9.952;2022-09-03T04:33:58;99033.16;;;13.64;58.66
69200;BME280;56313;49.804;9.952;2022-09-03T04:36:25;99039.63;;;13.85;57.94
69200;BME280;56313;49.804;9.952;2022-09-03T04:38:52;99030.88;;;13.92;57.82
69200;BME280;56313;49.804;9.952;2022-09-03T04:41:30;99028.91;;;13.86;58.08
69200;BME280;56313;49.804;9.952;2022-09-03T04:43:56;99031.31;;;13.73;58.36
69200;BME280;56313;49.804;9.952;2022-09-03T04:46:22;99027.84;;;13.72;58.55
69200;BME280;56313;49.804;9.952;2022-09-03T04:48:50;99029.50;;;13.73;58.64
69200;BME280;56313;49.804;9.952;2022-09-03T04:51:17;99038.38;;;13.72;58.69
69200;BME280;56313;49.804;9.952;2022-09-03T04:53:46;99038.03;;;13.75;58.73
69200;BME280;56313;49.804;9.952;2022-09-03T04:56:23;99043.44;;;13.82;58.44
69200;BME280;56313;49.804;9.952;2022-09-03T04:58:52;99042.38;;;13.91;58.03
69200;BME280;56313;49.804;9.952;2022-09-03T05:01:19;99043.09;;;13.85;57.94
69200;BME280;56313;49.804;9.952;2022-09-03T05:03:44;99046.66;;;13.92;58.22
69200;BME280;56313;49.804;9.952;2022-09-03T05:06:10;99051.69;;;14.02;57.84
69200;BME280;56313;49.804;9.952;2022-09-03T05:08:36;99062.13;;;13.96;57.98
69200;BME280;56313;49.804;9.952;2022-09-03T05:11:05;99060.06;;;14.06;57.78
69200;BME280;56313;49.804;9.952;2022-09-03T05:13:31;99056.03;;;13.95;58.01
69200;BME280;56313;49.804;9.952;2022-09-03T05:15:58;99049.94;;;13.94;58.15
69200;BME280;56313;49.804;9.952;2022-09-03T05:18:24;99054.31;;;14.02;57.82
69200;BME280;56313;49.804;9.952;2022-09-03T05:20:58;99055.50;;;14.00;58.23
69200;BME280;56313;49.804;9.952;2022-09-03T05:23:24;99052.63;;;14.10;57.71
69200;BME280;56313;49.804;9.952;2022-09-03T05:25:57;99053.47;;;14.10;57.54
69200;BME280;56313;49.804;9.952;2022-09-03T05:28:38;99047.13;;;14.19;57.13
69200;BME280;56313;49.804;9.952;2022-09-03T05:31:04;99053.56;;;14.17;57.40
69200;BME280;56313;49.804;9.952;2022-09-03T05:33:34;99056.88;;;14.11;57.70
69200;BME280;56313;49.804;9.952;2022-09-03T05:36:02;99056.72;;;14.12;57.48
69200;BME280;56313;49.804;9.952;2022-09-03T05:38:30;99056.19;;;14.17;57.54
69200;BME280;56313;49.804;9.952;2022-09-03T05:41:02;99056.69;;;14.21;57.43
69200;BME280;56313;49.804;9.952;2022-09-03T05:43:37;99050.88;;;14.25;57.31
69200;BME280;56313;49.804;9.952;2022-09-03T05:48:28;99054.56;;;14.16;57.77
69200;BME280;56313;49.804;9.952;2022-09-03T05:51:01;99057.44;;;14.29;57.58
69200;BME280;56313;49.804;9.952;2022-09-03T05:53:27;99056.19;;;14.40;57.32
69200;BME280;56313;49.804;9.952;2022-09-03T05:55:56;99061.03;;;14.28;57.49
69200;BME280;56313;49.804;9.952;2022-09-03T05:58:21;99066.25;;;14.37;57.37
69200;BME280;56313;49.804;9.952;2022-09-03T06:00:47;99062.09;;;14.42;57.11
69200;BME280;56313;49.804;9.952;2022-09-03T06:03:12;99059.47;;;14.42;57.38
69200;BME280;56313;49.804;9.952;2022-09-03T06:05:37;99066.31;;;14.52;57.14
69200;BME280;56313;49.804;9.952;2022-09-03T06:08:02;99059.47;;;14.81;56.55
69200;BME280;56313;49.804;9.952;2022-09-03T06:10:32;99054.19;;;14.42;57.42
69200;BME280;56313;49.804;9.952;2022-09-03T06:13:05;99054.50;;;14.63;56.83
69200;BME280;56313;49.804;9.952;2022-09-03T06:15:30;99049.19;;;14.71;56.83
69200;BME280;56313;49.804;9.952;2022-09-03T06:17:58;99048.09;;;14.65;57.02
69200;BME280;56313;49.804;9.952;2022-09-03T06:20:24;99052.78;;;14.93;56.44
69200;BME280;56313;49.804;9.952;2022-09-03T06:22:51;99047.69;;;14.92;56.46
69200;BME280;56313;49.804;9.952;2022-09-03T06:25:17;99055.91;;;14.74;57.00
69200;BME280;56313;49.804;9.952;2022-09-03T06:27:43;99052.66;;;14.87;56.66
69200;BME280;56313;49.804;9.952;2022-09-03T06:30:08;99057.88;;;14.95;56.62
69200;BME280;56313;49.804;9.952;2022-09-03T06:32:41;99065.88;;;15.02;56.54
69200;BME280;56313;49.804;9.952;2022-09-03T06:35:07;99056.88;;;15.11;56.26
69200;BME280;56313;49.804;9.952;2022-09-03T06:37:37;99054.53;;;15.68;55.31
69200;BME280;56313;49.804;9.952;2022-09-03T06:40:03;99059.03;;;15.53;55.53
69200;BME280;56313;49.804;9.952;2022-09-03T06:42:28;99052.56;;;15.55;56.82
69200;BME280;56313;49.804;9.952;2022-09-03T06:44:53;99051.09;;;15.68;55.41
69200;BME280;56313;49.804;9.952;2022-09-03T06:47:23;99053.75;;;15.90;55.66
69200;BME280;56313;49.804;9.952;2022-09-03T06:49:48;99060.06;;;15.74;62.60
69200;BME280;56313;49.804;9.952;2022-09-03T06:52:13;99052.22;;;15.43;56.15
69200;BME280;56313;49.804;9.952;2022-09-03T06:54:41;99054.19;;;15.56;55.99
69200;BME280;56313;49.804;9.952;2022-09-03T06:57:06;99054.00;;;15.58;55.76
69200;BME280;56313;49.804;9.952;2022-09-03T06:59:32;99054.28;;;15.48;56.04
69200;BME280;56313;49.804;9.952;2022-09-03T07:01:57;99049.00;;;15.63;55.98
69200;BME280;56313;49.804;9.952;2022-09-03T07:04:24;99051.09;;;15.68;55.84
69200;BME280;56313;49.804;9.952;2022-09-03T07:06:51;99047.44;;;15.69;55.90
69200;BME280;56313;49.804;9.952;2022-09-03T07:09:16;99048.81;;;15.65;56.12
69200;BME280;56313;49.804;9.952;2022-09-03T07:11:43;99049.50;;;15.74;55.97
69200;BME280;56313;49.804;9.952;2022-09-03T07:14:11;99044.75;;;15.99;55.33
69200;BME280;56313;49.804;9.952;2022-09-03T07:16:36;99046.88;;;16.11;55.08
69200;BME280;56313;49.804;9.952;2022-09-03T07:19:02;99050.56;;;16.16;54.76
69200;BME280;56313;49.804;9.952;2022-09-03T07:21:29;99043.84;;;16.36;54.21
69200;BME280;56313;49.804;9.952;2022-09-03T07:24:08;99046.53;;;16.71;57.80
69200;BME280;56313;49.804;9.952;2022-09-03T07:26:37;99043.03;;;16.64;53.34
69200;BME280;56313;49.804;9.952;2022-09-03T07:29:03;99040.56;;;16.62;53.10
69200;BME280;56313;49.804;9.952;2022-09-03T07:31:30;99045.41;;;16.87;52.46
69200;BME280;56313;49.804;9.952;2022-09-03T07:36:21;99042.38;;;17.19;51.40
69200;BME280;56313;49.804;9.952;2022-09-03T07:38:50;99045.94;;;17.46;50.66
69200;BME280;56313;49.804;9.952;2022-09-03T07:41:19;99042.13;;;17.63;50.54
69200;BME280;56313;49.804;9.952;2022-09-03T07:46:35;99037.34;;;17.31;50.72
69200;BME280;56313;49.804;9.952;2022-09-03T07:49:12;99037.00;;;17.47;50.70
69200;BME280;56313;49.804;9.952;2022-09-03T07:51:40;99034.78;;;17.51;50.57
69200;BME280;56313;49.804;9.952;2022-09-03T07:54:19;99035.44;;;17.67;49.43
69200;BME280;56313;49.804;9.952;2022-09-03T08:03:00;99046.97;;;18.15;48.68
69200;BME280;56313;49.804;9.952;2022-09-03T08:05:34;99051.84;;;18.18;48.42
69200;BME280;56313;49.804;9.952;2022-09-03T08:08:05;99051.47;;;18.21;48.07
69200;BME280;56313;49.804;9.952;2022-09-03T08:10:34;99038.63;;;18.31;48.01
69200;BME280;56313;49.804;9.952;2022-09-03T08:13:05;99045.75;;;18.51;47.81
69200;BME280;56313;49.804;9.952;2022-09-03T08:16:09;99048.63;;;18.63;47.05
69200;BME280;56313;49.804;9.952;2022-09-03T08:18:45;99043.91;;;18.72;49.77
69200;BME280;56313;49.804;9.952;2022-09-03T08:21:14;99045.75;;;18.71;46.71
69200;BME280;56313;49.804;9.952;2022-09-03T08:27:00;99041.66;;;18.62;47.09
69200;BME280;56313;49.804;9.952;2022-09-03T08:32:31;99035.69;;;18.94;46.49
69200;BME280;56313;49.804;9.952;2022-09-03T08:35:16;99040.81;;;19.09;52.62
69200;BME280;56313;49.804;9.952;2022-09-03T08:40:41;99042.00;;;19.06;45.97
69200;BME280;56313;49.804;9.952;2022-09-03T08:43:27;99045.44;;;19.20;45.84
69200;BME280;56313;49.804;9.952;2022-09-03T08:46:12;99047.06;;;19.28;45.71
69200;BME280;56313;49.804;9.952;2022-09-03T08:48:46;99043.13;;;19.44;45.54
69200;BME280;56313;49.804;9.952;2022-09-03T08:51:14;99056.75;;;19.55;45.91
69200;BME280;56313;49.804;9.952;2022-09-03T08:56:58;99046.94;;;18.96;46.48
69200;BME280;56313;49.804;9.952;2022-09-03T08:59:30;99054.38;;;19.46;45.52
69200;BME280;56313;49.804;9.952;2022-09-03T09:07:49;99038.72;;;19.70;45.52
69200;BME280;56313;49.804;9.952;2022-09-03T09:10:25;99039.59;;;19.57;45.38
69200;BME280;56313;49.804;9.952;2022-09-03T09:21:40;99044.84;;;20.10;44.73
69200;BME280;56313;49.804;9.952;2022-09-03T09:24:18;99048.72;;;20.40;54.05
69200;BME280;56313;49.804;9.952;2022-09-03T09:26:58;99042.53;;;20.13;44.83
69200;BME280;56313;49.804;9.952;2022-09-03T09:29:27;99040.41;;;19.97;45.29
69200;BME280;56313;49.804;9.952;2022-09-03T09:31:55;99035.41;;;19.75;45.52
69200;BME280;56313;49.804;9.952;2022-09-03T09:34:21;99031.38;;;19.66;45.92
69200;BME280;56313;49.804;9.952;2022-09-03T09:36:53;99035.81;;;19.72;45.82
69200;BME280;56313;49.804;9.952;2022-09-03T09:39:19;99029.09;;;19.76;45.77
69200;BME280;56313;49.804;9.952;2022-09-03T09:41:59;99023.50;;;19.84;45.38
69200;BME280;56313;49.804;9.952;2022-09-03T09:44:26;99028.25;;;20.15;50.66
69200;BME280;56313;49.804;9.952;2022-09-03T09:53:03;99018.16;;;19.91;45.89
69200;BME280;56313;49.804;9.952;2022-09-03T09:58:47;99013.81;;;20.29;47.23
69200;BME280;56313;49.804;9.952;2022-09-03T10:01:20;99008.44;;;20.80;44.32
69200;BME280;56313;49.804;9.952;2022-09-03T10:03:48;98997.47;;;20.88;47.66
69200;BME280;56313;49.804;9.952;2022-09-03T10:06:15;98997.31;;;20.46;46.03
69200;BME280;56313;49.804;9.952;2022-09-03T10:09:06;98998.72;;;20.67;44.07
69200;BME280;56313;49.804;9.952;2022-09-03T10:11:33;99001.78;;;20.89;44.29
69200;BME280;56313;49.804;9.952;2022-09-03T10:14:36;98990.50;;;21.44;42.98
69200;BME280;56313;49.804;9.952;2022-09-03T10:17:18;98992.53;;;21.60;44.58
69200;BME280;56313;49.804;9.952;2022-09-03T10:22:51;98994.97;;;21.31;43.60
69200;BME280;56313;49.804;9.952;2022-09-03T10:25:20;98996.53;;;21.20;48.80
69200;BME280;56313;49.804;9.952;2022-09-03T10:27:49;98995.59;;;21.45;43.81
69200;BME280;56313;49.804;9.952;2022-09-03T10:30:15;98991.59;;;21.67;42.52
69200;BME280;56313;49.804;9.952;2022-09-03T10:35:30;98984.69;;;21.35;42.49
69200;BME280;56313;49.804;9.952;2022-09-03T10:38:02;98988.97;;;21.36;42.78
69200;BME280;56313;49.804;9.952;2022-09-03T10:43:08;98988.91;;;21.24;46.62
69200;BME280;56313;49.804;9.952;2022-09-03T10:48:28;98977.22;;;21.86;42.19
69200;BME280;56313;49.804;9.952;2022-09-03T10:51:00;98974.19;;;21.83;43.24
69200;BME280;56313;49.804;9.952;2022-09-03T10:58:43;98980.84;;;22.28;41.85
69200;BME280;56313;49.804;9.952;2022-09-03T11:07:02;98982.25;;;22.31;41.28
69200;BME280;56313;49.804;9.952;2022-09-03T11:12:22;98972.63;;;22.18;41.71
69200;BME280;56313;49.804;9.952;2022-09-03T11:15:05;98978.06;;;22.47;42.55
69200;BME280;56313;49.804;9.952;2022-09-03T11:18:11;98974.28;;;21.76;44.85
69200;BME280;56313;49.804;9.952;2022-09-03T11:20:25;98965.69;;;22.40;41.84
69200;BME280;56313;49.804;9.952;2022-09-03T11:22:58;98947.22;;;22.51;41.55
69200;BME280;56313;49.804;9.952;2022-09-03T11:25:26;98948.25;;;22.26;42.41
69200;BME280;56313;49.804;9.952;2022-09-03T11:30:50;98925.75;;;22.34;44.36
69200;BME280;56313;49.804;9.952;2022-09-03T11:33:18;98926.34;;;22.36;42.34
69200;BME280;56313;49.804;9.952;2022-09-03T11:35:43;98920.03;;;22.54;42.17
69200;BME280;56313;49.804;9.952;2022-09-03T11:40:57;98925.44;;;22.95;41.12
69200;BME280;56313;49.804;9.952;2022-09-03T11:50:58;98919.25;;;22.42;43.53
69200;BME280;56313;49.804;9.952;2022-09-03T11:53:51;98926.22;;;22.67;48.11
69200;BME280;56313;49.804;9.952;2022-09-03T11:56:16;98924.53;;;22.89;42.28
69200;BME280;56313;49.804;9.952;2022-09-03T11:58:42;98925.22;;;22.97;41.35
69200;BME280;56313;49.804;9.952;2022-09-03T12:01:08;98921.69;;;22.67;41.81
69200;BME280;56313;49.804;9.952;2022-09-03T12:04:19;98919.34;;;22.71;41.67
69200;BME280;56313;49.804;9.952;2022-09-03T12:19:03;98920.78;;;23.02;46.34
69200;BME280;56313;49.804;9.952;2022-09-03T12:21:36;98920.06;;;23.07;41.79
69200;BME280;56313;49.804;9.952;2022-09-03T12:24:04;98919.66;;;22.86;41.87
69200;BME280;56313;49.804;9.952;2022-09-03T12:26:29;98917.63;;;23.06;41.45
69200;BME280;56313;49.804;9.952;2022-09-03T12:29:02;98923.59;;;23.25;41.44
69200;BME280;56313;49.804;9.952;2022-09-03T12:31:30;98930.03;;;22.71;48.20
69200;BME280;56313;49.804;9.952;2022-09-03T12:33:57;98934.84;;;22.98;43.63
69200;BME280;56313;49.804;9.952;2022-09-03T12:36:23;98938.41;;;22.26;48.92
69200;BME280;56313;49.804;9.952;2022-09-03T12:38:49;98933.53;;;21.57;48.13
69200;BME280;56313;49.804;9.952;2022-09-03T12:41:19;98938.97;;;21.81;46.62
69200;BME280;56313;49.804;9.952;2022-09-03T12:43:49;98942.78;;;21.85;46.25
69200;BME280;56313;49.804;9.952;2022-09-03T12:46:15;98931.94;;;21.56;48.34
69200;BME280;56313;49.804;9.952;2022-09-03T12:49:02;98936.69;;;21.65;47.08
69200;BME280;56313;49.804;9.952;2022-09-03T12:51:41;98942.81;;;22.09;50.25
69200;BME280;56313;49.804;9.952;2022-09-03T12:54:11;98933.53;;;22.35;44.53
69200;BME280;56313;49.804;9.952;2022-09-03T12:56:52;98939.78;;;22.29;45.47
69200;BME280;56313;49.804;9.952;2022-09-03T12:59:24;98928.34;;;22.28;45.10
69200;BME280;56313;49.804;9.952;2022-09-03T13:01:55;98941.53;;;22.59;44.48
69200;BME280;56313;49.804;9.952;2022-09-03T13:04:26;98935.09;;;22.84;43.14
69200;BME280;56313;49.804;9.952;2022-09-03T13:09:46;98945.34;;;22.63;43.31
69200;BME280;56313;49.804;9.952;2022-09-03T13:12:23;98934.22;;;22.67;46.35
69200;BME280;56313;49.804;9.952;2022-09-03T13:14:52;98932.19;;;23.15;42.12
69200;BME280;56313;49.804;9.952;2022-09-03T13:23:16;98932.06;;;22.93;42.89
69200;BME280;56313;49.804;9.952;2022-09-03T13:25:54;98937.34;;;22.51;51.59
69200;BME280;56313;49.804;9.952;2022-09-03T13:31:35;98928.09;;;23.36;42.41
69200;BME280;56313;49.804;9.952;2022-09-03T13:33:44;98928.78;;;23.32;41.96
69200;BME280;56313;49.804;9.952;2022-09-03T13:39:09;98918.63;;;22.87;43.58
69200;BME280;56313;49.804;9.952;2022-09-03T13:41:50;98925.56;;;22.88;47.24
69200;BME280;56313;49.804;9.952;2022-09-03T13:44:21;98925.56;;;22.88;43.28
69200;BME280;56313;49.804;9.952;2022-09-03T13:46:53;98927.81;;;22.56;44.22
69200;BME280;56313;49.804;9.952;2022-09-03T13:55:08;98923.31;;;21.96;48.50
69200;BME280;56313;49.804;9.952;2022-09-03T13:58:02;98922.03;;;22.47;47.14
69200;BME280;56313;49.804;9.952;2022-09-03T14:00:45;98917.97;;;21.84;54.03
69200;BME280;56313;49.804;9.952;2022-09-03T14:03:34;98919.47;;;21.80;48.74
69200;BME280;56313;49.804;9.952;2022-09-03T14:18:51;98917.94;;;22.80;50.50
69200;BME280;56313;49.804;9.952;2022-09-03T14:26:50;98912.00;;;21.58;55.77
69200;BME280;56313;49.804;9.952;2022-09-03T14:29:17;98911.09;;;22.72;50.44
69200;BME280;56313;49.804;9.952;2022-09-03T14:36:50;98922.53;;;22.97;50.78
69200;BME280;56313;49.804;9.952;2022-09-03T14:46:56;98917.03;;;21.79;49.54
69200;BME280;56313;49.804;9.952;2022-09-03T14:49:32;98906.75;;;21.94;51.59
69200;BME280;56313;49.804;9.952;2022-09-03T14:54:46;98904.19;;;21.02;58.09
69200;BME280;56313;49.804;9.952;2022-09-03T15:02:59;98891.91;;;21.86;54.55
69200;BME280;56313;49.804;9.952;2022-09-03T15:10:59;98895.38;;;22.23;49.26
69200;BME280;56313;49.804;9.952;2022-09-03T15:37:09;98905.50;;;23.15;44.44
69200;BME280;56313;49.804;9.952;2022-09-03T15:39:36;98904.47;;;23.33;43.70
69200;BME280;56313;49.804;9.952;2022-09-03T15:42:25;98909.53;;;22.59;51.31
69200;BME280;56313;49.804;9.952;2022-09-03T15:44:56;98907.47;;;22.90;44.91
69200;BME280;56313;49.804;9.952;2022-09-03T15:48:09;98914.44;;;23.21;44.14
69200;BME280;56313;49.804;9.952;2022-09-03T15:55:23;98918.97;;;22.91;47.21
69200;BME280;56313;49.804;9.952;2022-09-03T16:03:12;98916.31;;;22.79;44.93
69200;BME280;56313;49.804;9.952;2022-09-03T16:08:18;98921.94;;;22.30;49.71
69200;BME280;56313;49.804;9.952;2022-09-03T16:15:47;98920.88;;;22.31;50.06
69200;BME280;56313;49.804;9.952;2022-09-03T16:18:27;98922.41;;;22.14;53.61
69200;BME280;56313;49.804;9.952;2022-09-03T16:20:59;98932.84;;;22.04;48.59
69200;BME280;56313;49.804;9.952;2022-09-03T16:26:17;98923.22;;;22.51;50.81
69200;BME280;56313;49.804;9.952;2022-09-03T16:28:46;98921.00;;;22.72;44.56
69200;BME280;56313;49.804;9.952;2022-09-03T16:33:50;98929.13;;;21.81;53.44
69200;BME280;56313;49.804;9.952;2022-09-03T16:36:28;98924.13;;;22.57;45.69
69200;BME280;56313;49.804;9.952;2022-09-03T16:41:45;98927.13;;;22.36;46.90
69200;BME280;56313;49.804;9.952;2022-09-03T16:44:26;98926.22;;;22.67;45.79
69200;BME280;56313;49.804;9.952;2022-09-03T16:49:49;98933.44;;;22.42;46.04
69200;BME280;56313;49.804;9.952;2022-09-03T16:52:36;98933.16;;;22.44;45.84
69200;BME280;56313;49.804;9.952;2022-09-03T16:55:17;98943.03;;;22.55;45.93
69200;BME280;56313;49.804;9.952;2022-09-03T17:00:21;98945.25;;;22.22;51.09
69200;BME280;56313;49.804;9.952;2022-09-03T17:15:31;98946.75;;;22.06;47.08
69200;BME280;56313;49.804;9.952;2022-09-03T17:23:42;98959.50;;;22.28;46.64
69200;BME280;56313;49.804;9.952;2022-09-03T17:42:16;98975.28;;;21.63;47.31
69200;BME280;56313;49.804;9.952;2022-09-03T17:47:41;98977.00;;;21.57;47.22
69200;BME280;56313;49.804;9.952;2022-09-03T17:50:17;98981.38;;;21.51;47.41
69200;BME280;56313;49.804;9.952;2022-09-03T17:53:00;98987.50;;;21.52;47.21
69200;BME280;56313;49.804;9.952;2022-09-03T17:55:34;98989.59;;;21.50;47.30
69200;BME280;56313;49.804;9.952;2022-09-03T17:58:12;98996.06;;;21.42;47.38
69200;BME280;56313;49.804;9.952;2022-09-03T18:03:31;99003.25;;;21.23;47.74
69200;BME280;56313;49.804;9.952;2022-09-03T18:06:03;99020.66;;;21.25;47.95
69200;BME280;56313;49.804;9.952;2022-09-03T18:11:26;99045.66;;;21.06;51.58
69200;BME280;56313;49.804;9.952;2022-09-03T18:16:34;99046.84;;;21.29;48.42
69200;BME280;56313;49.804;9.952;2022-09-03T18:19:02;99049.72;;;21.27;50.08
69200;BME280;56313;49.804;9.952;2022-09-03T18:22:13;99048.75;;;21.21;48.46
69200;BME280;56313;49.804;9.952;2022-09-03T18:24:42;99047.06;;;21.08;52.48
69200;BME280;56313;49.804;9.952;2022-09-03T18:30:32;99057.06;;;20.18;66.93
69200;BME280;56313;49.804;9.952;2022-09-03T18:33:17;99060.69;;;19.84;70.68
69200;BME280;56313;49.804;9.952;2022-09-03T18:36:03;99055.56;;;19.44;73.71
69200;BME280;56313;49.804;9.952;2022-09-03T18:38:47;99063.66;;;19.17;72.88